Time;durP1;ratioP1;P1;durP2;ratioP2;P2;SDS_P1;SDS_P2;PMS_P1;PMS_P2;Temp;Humidity;BMP_temperature;BMP_pressure;BME280_temperature;BME280_humidity;BME280_pressure;Samples;Min_cycle;Max_cycle;Signal;HPM_P1;HPM_P2
2024/03/02 00:00:24;;;;;;;23.67;14.15;;;;;;;6.71;100.00;100681.59;5035487;28;20143;-71
2024/03/02 00:02:50;;;;;;;24.73;13.48;;;;;;;6.67;100.00;100693.34;5002825;28;20090;-71
2024/03/02 00:05:19;;;;;;;25.83;13.15;;;;;;;6.75;100.00;100688.34;5019376;28;20049;-72
2024/03/02 00:07:54;;;;;;;23.52;13.45;;;;;;;6.78;100.00;100685.50;5003368;28;20052;-71
2024/03/02 00:10:28;;;;;;;30.20;14.07;;;;;;;6.77;100.00;100678.53;5003862;28;20041;-71
2024/03/02 00:12:55;;;;;;;25.70;14.10;;;;;;;6.74;100.00;100678.75;5002403;28;20098;-71
2024/03/02 00:15:42;;;;;;;25.42;14.35;;;;;;;6.80;100.00;100681.81;5001167;28;20064;-71
2024/03/02 00:18:13;;;;;;;26.77;14.68;;;;;;;6.80;100.00;100679.16;5015703;28;20133;-71
2024/03/02 00:20:40;;;;;;;26.13;14.70;;;;;;;6.77;100.00;100673.25;4999652;28;20108;-71
2024/03/02 00:23:07;;;;;;;24.35;14.85;;;;;;;6.76;100.00;100677.69;4989560;28;20044;-71
2024/03/02 00:25:44;;;;;;;26.02;13.50;;;;;;;6.80;100.00;100668.59;5048700;28;20085;-71
2024/03/02 00:28:22;;;;;;;24.70;13.95;;;;;;;6.80;100.00;100671.25;4999583;28;20136;-71
2024/03/02 00:30:59;;;;;;;25.75;13.68;;;;;;;6.79;100.00;100671.34;5002549;28;20115;-72
2024/03/02 00:33:30;;;;;;;23.85;13.65;;;;;;;6.74;100.00;100671.69;5018854;28;20586;-71
2024/03/02 00:35:56;;;;;;;26.88;13.43;;;;;;;6.68;100.00;100673.91;5052400;28;20048;-71
2024/03/02 00:38:23;;;;;;;25.38;13.02;;;;;;;6.70;100.00;100679.94;5018879;28;20471;-71
2024/03/02 00:40:49;;;;;;;24.63;13.80;;;;;;;6.65;100.00;100672.34;5002339;28;20056;-71
2024/03/02 00:43:49;;;;;;;25.45;14.13;;;;;;;6.76;100.00;100667.13;5035497;28;20051;-71
2024/03/02 00:46:19;;;;;;;24.50;13.38;;;;;;;6.72;100.00;100673.56;5014402;28;20571;-71
2024/03/02 00:48:50;;;;;;;20.63;12.55;;;;;;;6.72;100.00;100678.84;4966572;28;20068;-71
2024/03/02 00:51:17;;;;;;;22.92;13.38;;;;;;;6.69;100.00;100679.06;4982275;28;20053;-72
2024/03/02 00:53:43;;;;;;;27.00;14.30;;;;;;;6.68;100.00;100681.81;5016920;28;20055;-72
2024/03/02 00:56:11;;;;;;;30.80;14.75;;;;;;;6.69;100.00;100689.63;4985063;28;20195;-72
2024/03/02 00:58:38;;;;;;;28.55;15.18;;;;;;;6.66;100.00;100684.56;5018038;28;20059;-72
2024/03/02 01:01:06;;;;;;;31.40;17.05;;;;;;;6.65;100.00;100689.97;5001130;28;20151;-71
2024/03/02 01:03:33;;;;;;;45.85;22.60;;;;;;;6.66;100.00;100687.22;4978168;28;20141;-71
2024/03/02 01:05:59;;;;;;;50.70;25.10;;;;;;;6.53;100.00;100683.72;4978531;28;20049;-71
2024/03/02 01:08:25;;;;;;;60.40;32.80;;;;;;;6.29;100.00;100680.16;4946908;28;20049;-71
2024/03/02 01:10:52;;;;;;;55.53;29.60;;;;;;;6.05;100.00;100681.00;4994338;28;20144;-71
2024/03/02 01:13:18;;;;;;;63.20;34.88;;;;;;;5.83;100.00;100681.59;4994671;28;20136;-71
2024/03/02 01:15:44;;;;;;;53.85;30.52;;;;;;;5.92;100.00;100686.25;4962000;28;20152;-71
2024/03/02 01:18:15;;;;;;;53.78;30.90;;;;;;;6.03;100.00;100696.06;5014910;28;20049;-71
2024/03/02 01:20:41;;;;;;;45.92;27.05;;;;;;;6.13;100.00;100681.31;5000498;28;20924;-71
2024/03/02 01:23:07;;;;;;;40.40;23.07;;;;;;;6.19;100.00;100687.03;4999903;28;20077;-71
2024/03/02 01:25:33;;;;;;;42.47;21.73;;;;;;;6.22;100.00;100685.97;4985012;28;20041;-71
2024/03/02 01:27:59;;;;;;;36.80;20.08;;;;;;;6.27;100.00;100694.41;4984456;28;20050;-71
2024/03/02 01:30:24;;;;;;;36.22;19.58;;;;;;;6.32;100.00;100697.59;4965160;28;20371;-73
2024/03/02 01:32:51;;;;;;;34.77;19.30;;;;;;;6.35;100.00;100697.38;4965862;28;20559;-72
2024/03/02 01:35:17;;;;;;;33.33;18.52;;;;;;;6.37;100.00;100696.31;4965768;28;20058;-71
2024/03/02 01:37:44;;;;;;;30.10;16.60;;;;;;;6.40;100.00;100690.81;4981630;28;20439;-71
2024/03/02 01:40:11;;;;;;;33.72;18.20;;;;;;;6.44;100.00;100697.56;4969563;28;20052;-71
2024/03/02 01:42:40;;;;;;;31.98;17.35;;;;;;;6.45;100.00;100691.34;5032417;28;20045;-71
2024/03/02 01:45:08;;;;;;;31.63;17.90;;;;;;;6.49;100.00;100684.91;5032850;28;20139;-72
2024/03/02 01:47:34;;;;;;;29.88;18.23;;;;;;;6.50;100.00;100697.13;5016393;28;20064;-71
2024/03/02 01:50:00;;;;;;;33.97;19.05;;;;;;;6.50;100.00;100702.41;4999679;28;20049;-71
2024/03/02 01:52:27;;;;;;;33.42;18.35;;;;;;;6.50;100.00;100696.31;5016003;28;20136;-71
2024/03/02 01:54:53;;;;;;;33.97;18.40;;;;;;;6.51;100.00;100692.72;4999700;28;20052;-72
2024/03/02 01:57:19;;;;;;;32.65;18.60;;;;;;;6.52;100.00;100695.25;5008753;28;20044;-71
2024/03/02 01:59:47;;;;;;;31.55;18.27;;;;;;;6.54;100.00;100696.00;5018036;28;20052;-71
2024/03/02 02:02:14;;;;;;;30.77;17.92;;;;;;;6.57;100.00;100693.13;5013731;28;20041;-71
2024/03/02 02:04:40;;;;;;;31.88;17.52;;;;;;;6.44;100.00;100694.94;4997172;28;20503;-71
2024/03/02 02:07:06;;;;;;;32.72;18.17;;;;;;;6.42;100.00;100696.00;4964440;28;20053;-71
2024/03/02 02:09:32;;;;;;;31.95;17.15;;;;;;;6.43;100.00;100695.03;4980710;28;20045;-71
2024/03/02 02:11:59;;;;;;;32.15;17.92;;;;;;;6.45;100.00;100704.56;4996726;28;20049;-71
2024/03/02 02:14:25;;;;;;;31.55;17.92;;;;;;;6.46;100.00;100705.38;4980856;28;20038;-71
2024/03/02 02:16:53;;;;;;;31.50;17.25;;;;;;;6.48;100.00;100701.69;5027890;28;20056;-71
2024/03/02 02:19:26;;;;;;;28.15;16.48;;;;;;;6.57;100.00;100693.13;5000557;28;20060;-73
2024/03/02 02:21:58;;;;;;;31.90;18.52;;;;;;;6.52;100.00;100697.88;4970434;28;20053;-71
2024/03/02 02:24:30;;;;;;;34.80;17.85;;;;;;;6.57;100.00;100698.41;5032680;28;20049;-73
2024/03/02 02:26:56;;;;;;;30.63;15.88;;;;;;;6.53;100.00;100701.38;5000736;28;20053;-71
2024/03/02 02:29:21;;;;;;;29.25;16.38;;;;;;;6.54;100.00;100700.41;4984263;28;20364;-71
2024/03/02 02:31:49;;;;;;;29.20;15.25;;;;;;;6.53;100.00;100712.75;4983677;28;20040;-71
2024/03/02 02:34:17;;;;;;;29.85;16.73;;;;;;;6.59;100.00;100707.09;5067894;28;20067;-71
2024/03/02 02:36:43;;;;;;;29.92;16.90;;;;;;;6.54;100.00;100703.91;5053314;28;20044;-71
2024/03/02 02:39:12;;;;;;;29.70;16.38;;;;;;;6.64;100.00;100699.66;5036997;28;20067;-71
2024/03/02 02:41:39;;;;;;;33.47;17.35;;;;;;;6.61;100.00;100710.44;5070271;28;20040;-71
2024/03/02 02:44:05;;;;;;;31.98;18.13;;;;;;;6.55;100.00;100702.13;5056774;28;20041;-71
2024/03/02 02:46:31;;;;;;;31.40;16.88;;;;;;;6.53;100.00;100701.38;5040493;28;20508;-71
2024/03/02 02:48:57;;;;;;;31.15;18.10;;;;;;;6.54;100.00;100701.28;5040721;28;20517;-72
2024/03/02 02:51:25;;;;;;;29.63;17.60;;;;;;;6.52;100.00;100700.53;5024869;28;20116;-71
2024/03/02 02:53:54;;;;;;;32.28;19.05;;;;;;;6.58;100.00;100702.72;5041340;28;20036;-71
2024/03/02 02:56:20;;;;;;;29.92;16.55;;;;;;;6.51;100.00;100709.41;5040870;28;20059;-71
2024/03/02 02:58:46;;;;;;;33.60;17.60;;;;;;;6.49;100.00;100711.28;5056998;28;20032;-71
2024/03/02 03:01:13;;;;;;;34.22;18.85;;;;;;;6.49;100.00;100711.28;5073730;28;20044;-72
2024/03/02 03:03:39;;;;;;;33.63;18.35;;;;;;;6.48;100.00;100708.75;5024120;28;20134;-72
2024/03/02 03:06:05;;;;;;;32.83;18.17;;;;;;;6.41;100.00;100715.44;5040857;28;20067;-71
2024/03/02 03:08:32;;;;;;;31.45;19.02;;;;;;;6.41;100.00;100716.25;5019879;28;20145;-71
2024/03/02 03:10:58;;;;;;;37.10;21.60;;;;;;;6.42;100.00;100715.31;5003367;28;20049;-71
2024/03/02 03:13:24;;;;;;;37.38;21.67;;;;;;;6.40;100.00;100711.06;5004167;28;20098;-71
2024/03/02 03:15:50;;;;;;;39.85;23.45;;;;;;;6.41;100.00;100715.44;5002151;28;20142;-71
2024/03/02 03:18:17;;;;;;;36.03;21.42;;;;;;;6.42;100.00;100706.53;5024997;28;20156;-72
2024/03/02 03:20:44;;;;;;;40.88;22.70;;;;;;;6.41;100.00;100708.34;4979028;28;20050;-70
2024/03/02 03:23:14;;;;;;;37.30;21.60;;;;;;;6.43;100.00;100717.00;4948533;28;20154;-71
2024/03/02 03:25:41;;;;;;;35.97;20.25;;;;;;;6.45;100.00;100720.38;4948679;28;20054;-71
2024/03/02 03:28:09;;;;;;;37.42;20.42;;;;;;;6.42;100.00;100715.31;4955535;29;20125;-71
2024/03/02 03:30:37;;;;;;;35.70;20.13;;;;;;;6.46;100.00;100708.00;4938445;29;20106;-71
2024/03/02 03:33:07;;;;;;;38.78;20.50;;;;;;;6.44;100.00;100709.94;4907107;29;20082;-71
2024/03/02 03:35:33;;;;;;;45.30;23.17;;;;;;;6.41;100.00;100704.88;4922815;29;20047;-71
2024/03/02 03:37:59;;;;;;;41.10;20.85;;;;;;;6.40;100.00;100708.44;4938265;29;20066;-70
2024/03/02 03:40:25;;;;;;;43.13;22.27;;;;;;;6.37;100.00;100701.59;4907071;29;20091;-70
2024/03/02 03:42:53;;;;;;;50.40;24.63;;;;;;;6.38;100.00;100715.63;4937958;29;20154;-70
2024/03/02 03:45:19;;;;;;;52.08;25.45;;;;;;;6.33;100.00;100709.81;4938762;28;20061;-73
2024/03/02 03:47:45;;;;;;;44.38;24.45;;;;;;;6.33;100.00;100710.69;4909405;29;20114;-71
2024/03/02 03:50:12;;;;;;;45.30;22.52;;;;;;;6.33;100.00;100709.81;4906865;29;20529;-71
2024/03/02 03:52:39;;;;;;;51.25;23.77;;;;;;;6.29;100.00;100709.19;4994866;28;20140;-71
2024/03/02 03:55:05;;;;;;;49.28;23.48;;;;;;;6.30;100.00;100712.69;4940341;28;20501;-71
2024/03/02 03:57:31;;;;;;;43.42;21.75;;;;;;;6.27;100.00;100703.16;4940800;28;20055;-72
2024/03/02 03:59:59;;;;;;;42.92;21.35;;;;;;;6.32;100.00;100700.22;4990914;28;20155;-71
2024/03/02 04:02:26;;;;;;;39.88;19.23;;;;;;;6.29;100.00;100701.25;4983048;28;20048;-71
2024/03/02 04:04:52;;;;;;;40.67;20.15;;;;;;;6.26;100.00;100693.56;4998690;28;20057;-71
2024/03/02 04:07:19;;;;;;;40.53;19.80;;;;;;;6.25;100.00;100691.88;4992102;28;20054;-72
2024/03/02 04:09:45;;;;;;;41.33;18.92;;;;;;;6.22;100.00;100697.38;4975974;28;20456;-71
2024/03/02 04:12:12;;;;;;;38.38;20.15;;;;;;;6.21;100.00;100692.19;4944090;28;20054;-71
2024/03/02 04:14:38;;;;;;;38.20;19.42;;;;;;;6.21;100.00;100700.13;4947390;28;20060;-71
2024/03/02 04:17:06;;;;;;;43.42;20.45;;;;;;;6.21;100.00;100697.47;4947416;28;20057;-71
2024/03/02 04:19:32;;;;;;;36.50;18.60;;;;;;;6.14;100.00;100701.47;5011208;28;20155;-72
2024/03/02 04:21:59;;;;;;;33.83;17.80;;;;;;;6.12;100.00;100696.28;4963214;28;20377;-71
2024/03/02 04:24:25;;;;;;;32.35;17.35;;;;;;;6.11;100.00;100699.88;4963041;28;20060;-71
2024/03/02 04:26:51;;;;;;;34.17;17.03;;;;;;;6.09;100.00;100701.78;5028153;28;20148;-71
2024/03/02 04:29:19;;;;;;;30.08;16.02;;;;;;;6.06;100.00;100695.84;4962763;28;20148;-71
2024/03/02 04:31:48;;;;;;;36.47;18.20;;;;;;;6.05;100.00;100704.72;4979018;28;20050;-72
2024/03/02 04:34:14;;;;;;;33.55;16.85;;;;;;;6.05;100.00;100699.47;4978507;28;20173;-71
2024/03/02 04:36:40;;;;;;;39.00;18.25;;;;;;;6.03;100.00;100699.56;4962786;28;20080;-71
2024/03/02 04:39:09;;;;;;;37.67;17.73;;;;;;;6.04;100.00;100703.88;4978677;28;20054;-72
2024/03/02 04:41:35;;;;;;;35.10;17.77;;;;;;;6.02;100.00;100704.94;4979150;28;20537;-71
2024/03/02 04:44:01;;;;;;;37.22;18.83;;;;;;;6.02;100.00;100705.78;4954974;28;20135;-72
2024/03/02 04:46:28;;;;;;;33.73;18.50;;;;;;;6.01;100.00;100713.81;5018068;28;20072;-72
2024/03/02 04:48:56;;;;;;;33.93;18.17;;;;;;;6.01;100.00;100711.16;5017979;28;20110;-72
2024/03/02 04:51:23;;;;;;;31.80;16.63;;;;;;;6.00;100.00;100715.59;5018352;28;20184;-72
2024/03/02 04:53:49;;;;;;;29.93;15.37;;;;;;;6.00;100.00;100710.31;5034929;28;20053;-73
2024/03/02 04:58:59;;;;;;;28.08;14.98;;;;;;;6.03;100.00;100704.84;5004586;28;20127;-70
2024/03/02 05:01:25;;;;;;;28.63;15.37;;;;;;;6.04;100.00;100703.88;4998028;28;20144;-73
2024/03/02 05:03:52;;;;;;;28.13;14.57;;;;;;;6.07;100.00;100711.59;4998791;28;20045;-70
2024/03/02 05:06:18;;;;;;;25.33;15.45;;;;;;;6.08;100.00;100710.66;4991629;28;20055;-69
2024/03/02 05:08:44;;;;;;;28.63;15.67;;;;;;;6.11;100.00;100705.16;5002012;28;20509;-70
2024/03/02 05:11:38;;;;;;;35.60;18.07;;;;;;;6.07;100.00;100706.34;5001845;28;20052;-70
2024/03/02 05:14:06;;;;;;;31.58;17.15;;;;;;;6.17;100.00;100709.16;5017904;28;20037;-71
2024/03/02 05:16:38;;;;;;;29.83;16.95;;;;;;;6.23;100.00;100714.88;5001230;28;20151;-70
2024/03/02 05:19:06;;;;;;;32.97;16.80;;;;;;;6.22;100.00;100712.34;5001119;28;20136;-69
2024/03/02 05:21:33;;;;;;;30.17;17.05;;;;;;;6.29;100.00;100711.81;5017639;28;20106;-69
2024/03/02 05:23:59;;;;;;;31.70;17.90;;;;;;;6.34;100.00;100715.00;5033710;28;20040;-70
2024/03/02 05:26:26;;;;;;;29.95;16.55;;;;;;;6.37;100.00;100716.56;5016699;28;20356;-70
2024/03/02 05:28:53;;;;;;;32.13;15.98;;;;;;;6.40;100.00;100717.22;4993798;28;20098;-71
2024/03/02 05:31:18;;;;;;;28.48;15.68;;;;;;;6.39;100.00;100718.16;4988192;28;20056;-69
2024/03/02 05:33:44;;;;;;;29.95;16.35;;;;;;;6.47;100.00;100725.56;4995428;28;20053;-72
2024/03/02 05:36:10;;;;;;;34.47;16.45;;;;;;;6.49;100.00;100716.56;4996893;28;20041;-71
2024/03/02 05:38:36;;;;;;;30.80;17.38;;;;;;;6.53;100.00;100715.41;4980238;28;20053;-71
2024/03/02 05:41:02;;;;;;;31.08;16.42;;;;;;;6.57;100.00;100716.88;4980892;28;20065;-72
2024/03/02 05:43:29;;;;;;;30.08;16.23;;;;;;;6.60;100.00;100710.53;4996509;28;20045;-69
2024/03/02 05:45:55;;;;;;;39.90;19.00;;;;;;;6.67;100.00;100720.56;4996779;28;20038;-69
2024/03/02 05:48:21;;;;;;;31.63;16.90;;;;;;;6.80;100.00;100715.28;4997710;28;20076;-69
2024/03/02 05:50:47;;;;;;;28.70;16.35;;;;;;;6.93;100.00;100723.19;4997651;28;20121;-69
2024/03/02 05:53:13;;;;;;;37.33;19.63;;;;;;;6.97;100.00;100722.84;5013336;28;20037;-70
2024/03/02 05:55:39;;;;;;;37.13;18.75;;;;;;;7.09;100.00;100721.16;4980738;28;20053;-69
2024/03/02 06:00:49;;;;;;;32.28;17.83;;;;;;;7.15;100.00;100718.88;5046436;28;20056;-68
2024/03/02 06:03:15;;;;;;;29.48;16.83;;;;;;;7.14;100.00;100716.34;5001387;28;20036;-70
2024/03/02 06:05:42;;;;;;;32.72;17.33;;;;;;;7.25;100.00;100716.44;5016939;28;20122;-73
2024/03/02 06:08:09;;;;;;;29.40;15.60;;;;;;;7.26;100.00;100718.13;5017285;28;20072;-72
2024/03/02 06:10:40;;;;;;;39.72;19.23;;;;;;;7.38;100.00;100727.81;5034723;28;20044;-73
2024/03/02 06:13:06;;;;;;;31.30;17.65;;;;;;;7.44;100.00;100727.38;5034179;28;20060;-73
2024/03/02 06:15:33;;;;;;;32.63;17.80;;;;;;;7.45;100.00;100732.53;5017132;28;20096;-72
2024/03/02 06:17:59;;;;;;;33.10;17.40;;;;;;;7.49;100.00;100725.25;5022591;28;20065;-71
2024/03/02 06:20:26;;;;;;;35.30;17.98;;;;;;;7.48;100.00;100736.75;5045961;28;20044;-72
2024/03/02 06:22:52;;;;;;;41.33;21.55;;;;;;;7.49;100.00;100735.81;5030390;28;20371;-71
2024/03/02 06:25:19;;;;;;;38.45;19.88;;;;;;;7.56;100.00;100732.59;5073438;28;20037;-71
2024/03/02 06:27:44;;;;;;;37.22;19.85;;;;;;;7.80;100.00;100736.06;5050764;28;20068;-71
2024/03/02 06:30:12;;;;;;;36.22;19.98;;;;;;;7.98;100.00;100739.16;5024920;28;20138;-71
2024/03/02 06:32:38;;;;;;;32.40;18.38;;;;;;;8.02;100.00;100733.53;5010931;28;20044;-70
2024/03/02 06:35:05;;;;;;;35.67;18.77;;;;;;;8.25;100.00;100737.09;5016734;28;20502;-79
2024/03/02 06:37:31;;;;;;;33.75;18.15;;;;;;;8.47;100.00;100739.81;5050278;28;20044;-69
2024/03/02 06:39:57;;;;;;;41.70;21.50;;;;;;;8.71;100.00;100729.94;5056571;28;20041;-72
2024/03/02 06:42:24;;;;;;;35.05;19.20;;;;;;;8.96;100.00;100727.06;5021139;28;20521;-71
2024/03/02 06:44:50;;;;;;;33.60;18.23;;;;;;;9.22;100.00;100725.00;5051119;28;20131;-71
2024/03/02 06:47:16;;;;;;;33.03;17.52;;;;;;;9.52;100.00;100738.41;5038823;28;20103;-72
2024/03/02 06:49:42;;;;;;;38.10;18.67;;;;;;;9.80;100.00;100722.78;5056629;28;20037;-73
2024/03/02 06:52:09;;;;;;;35.08;18.55;;;;;;;10.08;100.00;100732.81;5047889;28;20403;-72
2024/03/02 06:54:36;;;;;;;33.20;17.00;;;;;;;10.18;100.00;100733.72;5023168;28;20053;-72
2024/03/02 06:57:04;;;;;;;32.80;17.00;;;;;;;10.24;100.00;100730.53;5073976;28;20102;-72
2024/03/02 06:59:31;;;;;;;32.53;17.77;;;;;;;10.30;100.00;100734.53;5040131;28;20037;-74
2024/03/02 07:01:58;;;;;;;29.83;15.77;;;;;;;10.43;100.00;100728.97;5040575;28;20139;-73
2024/03/02 07:04:25;;;;;;;23.73;13.55;;;;;;;10.71;100.00;100720.34;5027234;28;20048;-75
2024/03/02 07:06:51;;;;;;;28.23;14.32;;;;;;;10.94;100.00;100727.16;4985013;28;20084;-72
2024/03/02 07:09:17;;;;;;;27.17;14.75;;;;;;;11.07;100.00;100719.81;4985114;28;20045;-70
2024/03/02 07:11:43;;;;;;;26.17;15.00;;;;;;;11.26;100.00;100723.34;4963813;28;20116;-73
2024/03/02 07:14:09;;;;;;;28.73;17.17;;;;;;;11.52;100.00;100713.88;4978860;28;20488;-72
2024/03/02 07:16:38;;;;;;;27.95;17.33;;;;;;;11.78;100.00;100714.22;4963859;28;20081;-72
2024/03/02 07:19:05;;;;;;;25.92;15.07;;;;;;;11.97;100.00;100716.03;4980393;28;20046;-73
2024/03/02 07:21:32;;;;;;;27.33;15.45;;;;;;;12.28;100.00;100720.22;4931927;28;20064;-72
2024/03/02 07:24:00;;;;;;;30.85;17.48;;;;;;;12.60;97.41;100718.03;4963903;28;20061;-71
2024/03/02 07:26:27;;;;;;;36.92;19.13;;;;;;;13.43;92.95;100725.00;4947505;28;20054;-72
2024/03/02 07:28:53;;;;;;;30.42;18.33;;;;;;;15.26;83.43;100715.03;4976028;28;20042;-72
2024/03/02 07:31:19;;;;;;;39.45;20.02;;;;;;;17.06;67.88;100712.94;4958347;28;20057;-72
2024/03/02 07:33:47;;;;;;;35.03;19.48;;;;;;;18.76;57.38;100716.97;4972896;28;20167;-72
2024/03/02 07:36:15;;;;;;;30.42;17.70;;;;;;;20.05;50.03;100714.25;4958255;28;20042;-72
2024/03/02 07:38:42;;;;;;;28.75;17.85;;;;;;;21.26;43.91;100720.19;4959135;28;20052;-72
2024/03/02 07:41:09;;;;;;;27.67;16.48;;;;;;;22.11;39.97;100725.91;4978207;28;20063;-72
2024/03/02 07:43:35;;;;;;;27.38;16.40;;;;;;;22.70;37.09;100716.78;5011133;28;20097;-72
2024/03/02 07:46:02;;;;;;;29.55;16.55;;;;;;;22.72;35.29;100720.13;5023832;28;20043;-72
2024/03/02 07:48:28;;;;;;;26.95;16.85;;;;;;;23.14;34.15;100708.75;5021496;28;20091;-72
2024/03/02 07:50:54;;;;;;;21.05;15.95;;;;;;;23.75;32.79;100708.31;5005288;28;20048;-72
2024/03/02 07:53:20;;;;;;;23.38;13.50;;;;;;;24.48;31.35;100707.59;5042682;28;20488;-72
2024/03/02 07:55:46;;;;;;;24.10;14.18;;;;;;;24.99;29.97;100707.38;5051927;28;20057;-72
2024/03/02 07:58:13;;;;;;;25.33;14.20;;;;;;;25.55;28.96;100700.63;5002640;28;20055;-72
2024/03/02 08:00:40;;;;;;;21.02;13.50;;;;;;;25.89;28.16;100705.38;5002870;28;20053;-72
2024/03/02 08:03:11;;;;;;;19.85;13.98;;;;;;;26.20;27.07;100699.69;4986858;28;20055;-72
2024/03/02 08:05:37;;;;;;;;;;;;;;;26.17;26.60;100699.34;5003205;28;20091;-72
2024/03/02 08:08:04;;;;;;;20.98;13.82;;;;;;;26.00;26.41;100701.09;4986119;28;20397;-72
2024/03/02 08:10:30;;;;;;;25.35;15.13;;;;;;;25.47;26.44;100695.50;5002211;28;20123;-72
2024/03/02 08:12:55;;;;;;;20.80;14.55;;;;;;;25.21;26.53;100703.13;5002055;28;20139;-71
2024/03/02 08:15:21;;;;;;;23.83;16.55;;;;;;;25.61;26.02;100693.44;4943613;28;20085;-72
2024/03/02 08:17:50;;;;;;;22.17;15.23;;;;;;;26.02;25.58;100688.88;4927901;28;20065;-72
2024/03/02 08:20:23;;;;;;;24.45;14.48;;;;;;;26.31;25.24;100693.44;4959967;28;20559;-72
2024/03/02 08:22:49;;;;;;;23.00;15.13;;;;;;;26.64;24.33;100683.91;4995933;28;20041;-72
2024/03/02 08:25:15;;;;;;;22.58;15.45;;;;;;;26.89;23.66;100687.22;4963183;28;20073;-71
2024/03/02 08:27:41;;;;;;;20.20;15.10;;;;;;;27.18;22.97;100684.31;4947361;28;20053;-71
2024/03/02 08:30:10;;;;;;;22.92;13.73;;;;;;;27.48;22.98;100684.13;4946934;28;20058;-72
2024/03/02 08:32:41;;;;;;;23.23;15.00;;;;;;;27.82;22.66;100686.72;4962818;28;20064;-72
2024/03/02 08:35:09;;;;;;;28.33;14.50;;;;;;;28.23;22.17;100682.00;4981699;28;20064;-72
2024/03/02 08:37:44;;;;;;;23.05;13.32;;;;;;;28.77;21.89;100684.00;4978495;28;20140;-72
2024/03/02 08:40:15;;;;;;;18.35;12.48;;;;;;;28.94;21.60;100693.81;4993858;28;20084;-72
2024/03/02 08:42:49;;;;;;;22.80;13.85;;;;;;;29.18;21.12;100684.34;4979714;28;20455;-72
2024/03/02 08:45:16;;;;;;;20.45;11.98;;;;;;;29.38;21.21;100686.50;4937722;28;20058;-72
2024/03/02 08:47:44;;;;;;;16.90;13.05;;;;;;;29.77;20.92;100684.50;4924774;28;20109;-72
2024/03/02 08:50:19;;;;;;;16.08;11.25;;;;;;;29.31;20.82;100680.38;4939935;28;20062;-72
2024/03/02 08:52:56;;;;;;;20.35;12.15;;;;;;;27.68;21.32;100674.44;4973217;28;20521;-72
2024/03/02 08:55:21;;;;;;;20.13;12.35;;;;;;;26.05;22.67;100680.25;4886265;29;20083;-72
2024/03/02 08:57:51;;;;;;;18.38;13.88;;;;;;;24.80;23.95;100669.28;4871016;29;20165;-72
2024/03/02 09:00:17;;;;;;;25.50;15.00;;;;;;;23.78;25.01;100665.31;4855672;29;20055;-72
2024/03/02 09:02:47;;;;;;;21.48;14.50;;;;;;;23.15;25.85;100675.19;4901866;29;20063;-72
2024/03/02 09:05:20;;;;;;;22.23;14.02;;;;;;;22.52;26.54;100675.97;4902301;29;20725;-71
2024/03/02 09:07:53;;;;;;;23.50;14.90;;;;;;;22.63;26.57;100669.88;4918097;29;20466;-72
2024/03/02 09:10:23;;;;;;;24.48;15.48;;;;;;;23.28;25.94;100663.47;4916919;29;20067;-72
2024/03/02 09:12:54;;;;;;;24.38;15.85;;;;;;;23.46;25.31;100668.19;4901574;29;20066;-72
2024/03/02 09:15:21;;;;;;;24.35;16.05;;;;;;;23.50;25.31;100659.41;4901141;29;20067;-72
2024/03/02 09:17:50;;;;;;;24.55;15.70;;;;;;;24.20;24.82;100672.72;4861183;29;20068;-72
2024/03/02 09:20:18;;;;;;;24.90;15.23;;;;;;;25.37;23.97;100670.72;4879532;29;20056;-72
2024/03/02 09:22:47;;;;;;;;;;;;;;;26.51;22.63;100673.22;4920702;29;20147;-73
2024/03/02 09:25:18;;;;;;;;;;;;;;;27.08;21.89;100669.63;4913357;29;19927;-72
2024/03/02 09:27:50;;;;;;;23.80;15.23;;;;;;;28.19;20.89;100668.00;4953600;28;19925;-73
2024/03/02 09:30:18;;;;;;;22.52;14.32;;;;;;;29.05;20.23;100664.69;4971197;28;20073;-72
2024/03/02 09:32:45;;;;;;;27.15;14.98;;;;;;;29.57;19.22;100658.53;4939136;28;20059;-73
2024/03/02 09:35:18;;;;;;;20.35;13.57;;;;;;;30.08;18.92;100656.28;4954310;28;20081;-73
2024/03/02 09:37:43;;;;;;;19.55;13.63;;;;;;;30.35;18.37;100657.13;4954603;28;20054;-73
2024/03/02 09:40:13;;;;;;;18.73;12.80;;;;;;;30.78;17.97;100657.72;4969416;28;20094;-73
2024/03/02 09:42:44;;;;;;;19.38;13.88;;;;;;;31.35;17.73;100663.25;4951214;29;20074;-72
2024/03/02 09:45:12;;;;;;;21.00;14.82;;;;;;;31.50;17.41;100646.81;4913161;29;20208;-72
2024/03/02 09:47:42;;;;;;;23.92;14.50;;;;;;;31.86;17.02;100642.25;4897283;29;20044;-72
2024/03/02 09:50:09;;;;;;;23.98;14.27;;;;;;;32.03;16.46;100649.13;4888595;29;20064;-73
2024/03/02 09:52:36;;;;;;;15.68;12.73;;;;;;;32.11;16.43;100647.75;4878673;29;20112;-73
2024/03/02 09:55:05;;;;;;;20.10;13.93;;;;;;;31.67;16.24;100644.66;4863222;29;20502;-72
2024/03/02 09:57:32;;;;;;;19.13;13.48;;;;;;;31.23;17.01;100640.63;4894337;29;20063;-73
2024/03/02 10:00:02;;;;;;;21.23;12.80;;;;;;;31.66;16.67;100637.50;4878973;29;20532;-73
2024/03/02 10:02:33;;;;;;;20.38;12.25;;;;;;;32.14;16.66;100637.03;4841635;29;20061;-72
2024/03/02 10:05:03;;;;;;;21.30;13.73;;;;;;;32.11;15.74;100637.56;4841856;29;20405;-72
2024/03/02 10:07:32;;;;;;;19.60;12.73;;;;;;;32.24;16.05;100630.72;4842070;29;20506;-73
2024/03/02 10:10:24;;;;;;;16.98;13.05;;;;;;;32.54;15.73;100628.78;4863538;29;20048;-73
2024/03/02 10:13:18;;;;;;;21.13;14.77;;;;;;;32.44;16.02;100628.78;4845011;29;20159;-73
2024/03/02 10:15:49;;;;;;;23.08;16.13;;;;;;;32.35;15.49;100633.19;4865132;29;20531;-73
2024/03/02 10:18:29;;;;;;;23.85;15.05;;;;;;;32.32;15.70;100632.91;4865661;29;20063;-73
2024/03/02 10:21:13;;;;;;;17.80;13.55;;;;;;;32.45;15.39;100633.19;4880629;29;20147;-73
2024/03/02 10:23:41;;;;;;;20.02;14.45;;;;;;;32.58;15.79;100635.34;4900429;29;20052;-73
2024/03/02 10:26:18;;;;;;;23.55;14.48;;;;;;;32.97;15.08;100632.00;4916127;29;20052;-73
2024/03/02 10:28:52;;;;;;;17.70;13.18;;;;;;;33.33;15.06;100628.78;4915701;29;20063;-73
2024/03/02 10:31:19;;;;;;;20.27;14.73;;;;;;;33.42;14.90;100631.81;4900874;29;20070;-73
2024/03/02 10:33:46;;;;;;;18.90;13.25;;;;;;;34.01;14.71;100627.03;4916411;29;20055;-73
2024/03/02 10:36:14;;;;;;;17.13;12.82;;;;;;;33.48;14.55;100625.97;4900618;29;20056;-73
2024/03/02 10:38:42;;;;;;;20.25;12.45;;;;;;;33.44;14.66;100626.84;4916219;29;20044;-73
2024/03/02 10:41:10;;;;;;;20.15;12.48;;;;;;;33.39;14.60;100630.44;4900412;29;20047;-72
2024/03/02 10:43:39;;;;;;;17.48;12.13;;;;;;;32.07;15.23;100633.75;4932149;29;20051;-73
2024/03/02 10:46:07;;;;;;;20.95;12.43;;;;;;;31.49;15.52;100636.91;4916465;29;20102;-73
2024/03/02 10:48:35;;;;;;;17.08;11.85;;;;;;;31.57;15.97;100630.88;4916762;29;20079;-72
2024/03/02 10:51:02;;;;;;;16.58;11.93;;;;;;;31.33;15.78;100629.72;4934991;29;20110;-73
2024/03/02 10:53:28;;;;;;;15.35;11.20;;;;;;;31.44;15.58;100630.59;4919346;29;20146;-72
2024/03/02 10:56:02;;;;;;;14.27;10.68;;;;;;;31.88;15.57;100635.38;4915579;29;20090;-73
2024/03/02 10:58:32;;;;;;;15.70;10.40;;;;;;;32.08;15.23;100637.28;4916978;28;20076;-72
2024/03/02 11:01:02;;;;;;;21.13;13.15;;;;;;;31.47;15.38;100627.28;4937793;28;20509;-72
2024/03/02 11:03:35;;;;;;;19.27;12.10;;;;;;;30.67;15.87;100635.94;4936491;28;20061;-72
2024/03/02 11:06:06;;;;;;;18.25;11.90;;;;;;;29.60;17.03;100625.16;4977582;28;20077;-72
2024/03/02 11:08:34;;;;;;;17.60;11.73;;;;;;;28.89;17.43;100619.88;4977098;28;20141;-72
2024/03/02 11:11:08;;;;;;;16.85;11.80;;;;;;;27.67;18.13;100620.94;4976864;28;20058;-73
2024/03/02 11:13:34;;;;;;;16.52;12.18;;;;;;;27.29;18.75;100628.91;4993116;28;20069;-72
2024/03/02 11:16:12;;;;;;;21.05;13.25;;;;;;;27.44;18.52;100622.94;4960432;28;20489;-72
2024/03/02 11:18:39;;;;;;;24.10;12.95;;;;;;;27.89;18.55;100626.53;4980689;28;20069;-72